• Join FlightAware (Why Join?)
  • Login
  • US Flag 
Gobble Gobble! 
03:55PM EST


 

Airport Tracker/Info


-or-


 

Live Flight TrackerFlight Track Log ✈ AWE2185 ✈ 21-Apr-2013 ✈ KLGA - KDCA

Flight Track Log - Related Links

Times and Time Zones

All times are in EDT time to prevent confusion due to time zone crossing. See the AWE2185 flight status page for this flight to view local times or setup timezone preferences in your user account.

Time Position Orientation Groundspeed Altitude Reporting Facility
EDT Latitude Longitude Course Direction KTS MPH feet Rate Location/Type
06:56PM 40.7667 -73.8000 270° West 189 217 2,800  Level New York TRACON
06:57PM 40.8167 -73.7667 27° Northeast 227 261 5,700 2,400 Climbing New York TRACON
06:58PM 40.6539 -74.2187 244° Southwest  Level FlightAware Approximate
06:58PM 40.8333 -73.8500 285° West 269 310 7,900  Level New York TRACON
06:59PM 40.6113 -74.3356 244° Southwest  Level FlightAware Approximate
06:59PM 40.8333 -73.9500 270° West 270 311 11,600  Level New York TRACON
07:00PM 40.5710 -74.4537 246° West  Level FlightAware Approximate
07:00PM 40.8167 -74.0500 258° West 302 348 14,400  Level New York TRACON
07:01PM 40.5333 -74.5728 270° West  Level FlightAware Approximate
07:01PM 40.7667 -74.1667 241° Southwest 314 361 15,000  Level New York TRACON
07:02PM 40.7167 -74.2667 237° Southwest 398 458 15,100 1,140 Climbing New York TRACON
07:04PM 40.6125 -74.5244 242° Southwest 395 455 18,700 1,500 Climbing New York Center
07:05PM 40.5514 -74.6658 240° Southwest 400 460 20,000 600 Climbing New York Center
07:06PM 40.4972 -74.7967 241° Southwest 405 466 20,000  Level New York Center
07:07PM 40.4406 -74.9269 240° Southwest 412 474 20,000  Level New York Center
07:08PM 40.3697 -75.0425 231° Southwest 412 474 20,000  Level New York Center
07:09PM 40.2950 -75.1494 228° Southwest 412 474 20,000  Level New York Center
07:10PM 40.2156 -75.2614 227° Southwest 417 480 20,000  Level New York Center
07:11PM 40.1406 -75.3678 227° Southwest 417 480 20,000  Level New York Center
07:12PM 40.0633 -75.4767 227° Southwest 417 480 20,000  Level New York Center
07:13PM 39.9903 -75.5856 229° Southwest 417 480 20,000  Level New York Center
07:14PM 39.9192 -75.6942 230° Southwest 412 474 20,000 -240 Level New York Center
07:15PM 39.8494 -75.8111 232° Southwest 413 475 19,600 -900 Descending New York Center
07:16PM 39.7739 -75.9164 227° Southwest 408 470 18,200 -1,200 Descending New York Center
07:17PM 39.7092 -76.0169 230° Southwest 408 470 17,200 -1,380 Descending New York Center
07:18PM 39.6308 -76.1378 230° Southwest 408 470 15,500 -1,680 Descending New York Center
07:19PM 39.5653 -76.2458 232° Southwest 397 457 13,900 -1,620 Descending New York Center
07:20PM 39.5000 -76.3333 226° Southwest 380 437 12,600 -1,080 Descending Potomac TRACON
07:21PM 39.4333 -76.4333 229° Southwest 379 436 12,000 -360 Descending Potomac TRACON
07:22PM 39.3333 -76.5167 213° Southwest 377 434 11,900 -660 Descending Potomac TRACON
07:23PM 39.2500 -76.5833 212° Southwest 362 417 10,700 -960 Descending Potomac TRACON
07:24PM 39.1833 -76.6500 218° Southwest 306 352 10,000 -360 Descending Potomac TRACON
07:25PM 39.1500 -76.7500 247° West 280 322 10,000 -600 Level Potomac TRACON
07:26PM 39.1167 -76.8333 243° Southwest 281 323 8,800 -1,080 Descending Potomac TRACON
07:27PM 39.0833 -76.9333 247° West 279 321 8,000 -1,140 Descending Potomac TRACON
07:28PM 39.0667 -77.0167 256° West 276 318 6,600 -1,740 Descending Potomac TRACON
07:29PM 39.0333 -77.1000 243° Southwest 262 302 4,800 -1,320 Descending Potomac TRACON
07:30PM 39.0000 -77.1667 237° Southwest 219 252 4,100 -900 Descending Potomac TRACON
07:31PM 38.9667 -77.1667 180° South 173 199 3,100 -1,200 Descending Potomac TRACON
07:32PM 38.9333 -77.1167 131° Southeast 170 196 1,800 -1,320 Descending Potomac TRACON